Time,TemperatureF,DewpointF,PressureIn,WindDirection,WindDirectionDegrees,WindSpeedMPH,WindSpeedGustMPH,Humidity,HourlyPrecipIn,Conditions,Clouds,dailyrainin,SoftwareType,DateUTC
2013-10-26 00:01:00,59.7,56.5,30.22,East,90,0.0,0.0,89,0.00,,,0.00,meteohub,2013-10-26 04:01:00,
2013-10-26 00:02:00,59.7,56.5,30.22,East,90,0.0,0.0,89,0.00,,,0.00,meteohub,2013-10-26 04:02:00,
2013-10-26 00:04:00,59.7,56.8,30.22,East,90,0.0,0.0,90,0.00,,,0.00,meteohub,2013-10-26 04:04:00,
2013-10-26 00:06:00,59.7,56.8,30.22,East,90,0.0,0.0,90,0.00,,,0.00,meteohub,2013-10-26 04:06:00,
2013-10-26 00:11:00,59.5,56.7,30.22,SW,225,0.0,0.0,90,0.00,,,0.00,meteohub,2013-10-26 04:11:00,
2013-10-26 00:12:00,59.5,56.7,30.22,SW,225,0.0,0.0,90,0.00,,,0.00,meteohub,2013-10-26 04:12:00,
2013-10-26 00:17:00,59.5,56.7,30.22,North,0,0.0,0.0,90,0.00,,,0.00,meteohub,2013-10-26 04:17:00,
2013-10-26 00:22:00,59.4,56.5,30.22,North,0,0.0,0.0,90,0.00,,,0.00,meteohub,2013-10-26 04:22:00,
2013-10-26 00:27:00,59.4,56.7,30.22,North,0,0.0,0.0,91,0.00,,,0.00,meteohub,2013-10-26 04:27:00,
2013-10-26 00:32:00,59.4,56.7,30.22,North,0,0.0,0.0,91,0.00,,,0.00,meteohub,2013-10-26 04:32:00,
2013-10-26 00:37:00,59.2,56.5,30.22,North,0,0.0,0.0,91,0.00,,,0.00,meteohub,2013-10-26 04:37:00,
2013-10-26 00:42:00,59.2,56.5,30.22,North,0,0.0,0.0,91,0.00,,,0.00,meteohub,2013-10-26 04:42:00,
2013-10-26 00:47:00,59.0,56.3,30.22,North,0,0.0,0.0,91,0.00,,,0.00,meteohub,2013-10-26 04:47:00,
2013-10-26 00:52:00,59.0,56.3,30.22,West,270,0.0,0.0,91,0.00,,,0.00,meteohub,2013-10-26 04:52:00,
2013-10-26 00:57:00,58.6,56.3,30.22,West,270,0.0,0.0,92,0.00,,,0.00,meteohub,2013-10-26 04:57:00,
2013-10-26 01:02:00,58.5,56.1,30.21,West,270,0.0,0.0,92,0.00,,,0.00,meteohub,2013-10-26 05:02:00,
2013-10-26 01:08:00,58.5,56.1,30.21,West,270,0.0,0.0,92,0.00,,,0.00,meteohub,2013-10-26 05:08:00,
2013-10-26 01:13:00,58.3,55.9,30.21,West,270,0.0,0.0,92,0.00,,,0.00,meteohub,2013-10-26 05:13:00,
2013-10-26 01:18:00,58.1,55.8,30.20,West,270,0.0,0.0,92,0.00,,,0.00,meteohub,2013-10-26 05:18:00,
2013-10-26 01:23:00,58.1,55.8,30.21,West,270,0.0,0.0,92,0.00,,,0.00,meteohub,2013-10-26 05:23:00,
2013-10-26 01:28:00,58.1,56.1,30.20,West,270,0.0,0.0,93,0.00,,,0.00,meteohub,2013-10-26 05:28:00,
2013-10-26 01:33:00,57.9,55.9,30.20,West,270,0.0,0.0,93,0.00,,,0.00,meteohub,2013-10-26 05:33:00,
2013-10-26 01:38:00,57.9,55.9,30.20,West,270,0.0,0.0,93,0.00,,,0.00,meteohub,2013-10-26 05:38:00,
2013-10-26 01:43:00,57.7,55.8,30.20,West,270,0.0,0.0,93,0.00,,,0.00,meteohub,2013-10-26 05:43:00,
2013-10-26 01:48:00,57.7,55.8,30.20,West,270,0.0,0.0,93,0.00,,,0.00,meteohub,2013-10-26 05:48:00,
2013-10-26 01:53:00,57.6,55.6,30.19,West,270,0.0,0.0,93,0.00,,,0.00,meteohub,2013-10-26 05:53:00,
2013-10-26 01:58:00,57.6,55.6,30.20,North,0,0.0,0.0,93,0.00,,,0.00,meteohub,2013-10-26 05:58:00,
2013-10-26 02:03:00,57.4,55.4,30.20,North,0,0.0,0.0,93,0.00,,,0.00,meteohub,2013-10-26 06:03:00,
2013-10-26 02:08:00,57.4,55.6,30.19,North,0,0.0,2.0,94,0.00,,,0.00,meteohub,2013-10-26 06:08:00,
2013-10-26 02:14:00,57.4,55.6,30.19,West,270,0.0,2.0,94,0.00,,,0.00,meteohub,2013-10-26 06:14:00,
2013-10-26 02:19:00,57.2,55.4,30.19,West,270,0.0,0.0,94,0.00,,,0.00,meteohub,2013-10-26 06:19:00,
2013-10-26 02:24:00,57.2,55.4,30.19,West,270,0.0,1.0,94,0.00,,,0.00,meteohub,2013-10-26 06:24:00,
2013-10-26 02:29:00,57.2,55.4,30.19,West,270,0.0,1.0,94,0.00,,,0.00,meteohub,2013-10-26 06:29:00,
2013-10-26 02:34:00,57.0,55.6,30.18,West,270,0.0,1.0,95,0.00,,,0.00,meteohub,2013-10-26 06:34:00,
2013-10-26 02:39:00,57.0,55.6,30.18,SW,225,0.0,0.0,95,0.00,,,0.00,meteohub,2013-10-26 06:39:00,
2013-10-26 02:44:00,57.0,55.6,30.18,North,0,0.0,0.0,95,0.00,,,0.00,meteohub,2013-10-26 06:44:00,
2013-10-26 02:49:00,57.0,55.6,30.18,North,0,0.0,0.0,95,0.00,,,0.00,meteohub,2013-10-26 06:49:00,
2013-10-26 02:54:00,57.0,55.6,30.17,North,0,0.0,0.0,95,0.00,,,0.00,meteohub,2013-10-26 06:54:00,
2013-10-26 02:59:00,57.0,55.6,30.18,North,0,0.0,0.0,95,0.00,,,0.00,meteohub,2013-10-26 06:59:00,
2013-10-26 03:04:00,57.0,55.6,30.18,NE,45,0.0,0.0,95,0.00,,,0.00,meteohub,2013-10-26 07:04:00,
2013-10-26 03:09:00,57.0,55.6,30.18,North,0,0.0,1.0,95,0.00,,,0.00,meteohub,2013-10-26 07:09:00,
2013-10-26 03:14:00,57.0,55.6,30.17,West,270,0.0,1.0,95,0.00,,,0.00,meteohub,2013-10-26 07:14:00,
2013-10-26 03:19:00,57.0,55.6,30.17,West,270,0.0,1.0,95,0.00,,,0.00,meteohub,2013-10-26 07:19:00,
2013-10-26 03:24:00,57.0,55.6,30.17,North,0,0.0,0.0,95,0.00,,,0.00,meteohub,2013-10-26 07:24:00,
2013-10-26 03:29:00,57.0,55.6,30.17,NW,315,0.0,0.0,95,0.00,,,0.00,meteohub,2013-10-26 07:29:00,
2013-10-26 03:34:00,56.8,55.4,30.17,WSW,248,0.0,0.0,95,0.00,,,0.00,meteohub,2013-10-26 07:34:00,
2013-10-26 03:39:00,56.7,55.2,30.17,WSW,248,0.0,0.0,95,0.00,,,0.00,meteohub,2013-10-26 07:39:00,
2013-10-26 03:45:00,56.5,55.0,30.17,SW,225,0.0,0.0,95,0.00,,,0.00,meteohub,2013-10-26 07:45:00,
2013-10-26 03:50:00,56.5,55.0,30.17,NW,315,0.0,0.0,95,0.00,,,0.00,meteohub,2013-10-26 07:50:00,
2013-10-26 03:55:00,56.3,54.9,30.17,NW,315,0.0,0.0,95,0.00,,,0.00,meteohub,2013-10-26 07:55:00,
2013-10-26 04:00:00,56.1,54.7,30.17,NW,315,0.0,0.0,95,0.00,,,0.00,meteohub,2013-10-26 08:00:00,
2013-10-26 04:05:00,55.9,54.5,30.17,NW,315,0.0,0.0,95,0.00,,,0.00,meteohub,2013-10-26 08:05:00,
2013-10-26 04:10:00,55.9,54.5,30.17,NW,315,0.0,0.0,95,0.00,,,0.00,meteohub,2013-10-26 08:10:00,
2013-10-26 04:15:00,55.8,54.3,30.17,North,0,0.0,0.0,95,0.00,,,0.00,meteohub,2013-10-26 08:15:00,
2013-10-26 04:20:00,55.8,54.3,30.17,North,0,0.0,0.0,95,0.00,,,0.00,meteohub,2013-10-26 08:20:00,
2013-10-26 04:25:00,55.8,54.3,30.17,North,0,0.0,0.0,95,0.00,,,0.00,meteohub,2013-10-26 08:25:00,
2013-10-26 04:30:00,55.6,54.1,30.16,SE,135,0.0,0.0,95,0.00,,,0.00,meteohub,2013-10-26 08:30:00,
2013-10-26 04:35:00,55.6,54.1,30.17,SE,135,0.0,0.0,95,0.00,,,0.00,meteohub,2013-10-26 08:35:00,
2013-10-26 04:40:00,55.4,54.0,30.17,SE,135,0.0,0.0,95,0.00,,,0.00,meteohub,2013-10-26 08:40:00,
2013-10-26 04:45:00,55.4,54.0,30.17,North,0,0.0,0.0,95,0.00,,,0.00,meteohub,2013-10-26 08:45:00,
2013-10-26 04:50:00,55.4,54.0,30.16,North,0,0.0,0.0,95,0.00,,,0.00,meteohub,2013-10-26 08:50:00,
2013-10-26 04:55:00,55.2,54.1,30.17,North,0,0.0,0.0,96,0.00,,,0.00,meteohub,2013-10-26 08:55:00,
2013-10-26 05:00:00,55.2,54.1,30.16,North,0,0.0,0.0,96,0.00,,,0.00,meteohub,2013-10-26 09:00:00,
2013-10-26 05:05:00,55.2,54.1,30.17,North,0,0.0,0.0,96,0.00,,,0.00,meteohub,2013-10-26 09:05:00,
2013-10-26 05:10:00,55.0,54.0,30.17,North,0,0.0,0.0,96,0.00,,,0.00,meteohub,2013-10-26 09:10:00,
2013-10-26 05:16:00,55.0,54.0,30.17,North,0,0.0,0.0,96,0.00,,,0.00,meteohub,2013-10-26 09:16:00,
2013-10-26 05:21:00,55.0,54.0,30.17,North,0,0.0,0.0,96,0.00,,,0.00,meteohub,2013-10-26 09:21:00,
2013-10-26 05:26:00,55.0,54.0,30.17,North,0,0.0,0.0,96,0.00,,,0.00,meteohub,2013-10-26 09:26:00,
2013-10-26 05:31:00,55.0,54.0,30.16,North,0,0.0,0.0,96,0.00,,,0.00,meteohub,2013-10-26 09:31:00,
2013-10-26 05:36:00,54.9,53.8,30.16,NW,315,0.0,0.0,96,0.00,,,0.00,meteohub,2013-10-26 09:36:00,
2013-10-26 05:41:00,54.9,53.8,30.16,West,270,0.0,0.0,96,0.00,,,0.00,meteohub,2013-10-26 09:41:00,
2013-10-26 05:46:00,54.9,53.8,30.17,West,270,0.0,0.0,96,0.00,,,0.00,meteohub,2013-10-26 09:46:00,
2013-10-26 05:51:00,54.9,53.8,30.17,West,270,0.0,0.0,96,0.00,,,0.00,meteohub,2013-10-26 09:51:00,
2013-10-26 05:56:00,54.7,53.6,30.17,West,270,0.0,0.0,96,0.00,,,0.00,meteohub,2013-10-26 09:56:00,
2013-10-26 06:01:00,54.7,53.6,30.17,West,270,0.0,0.0,96,0.00,,,0.00,meteohub,2013-10-26 10:01:00,
2013-10-26 06:06:00,54.7,53.6,30.17,West,270,0.0,0.0,96,0.00,,,0.00,meteohub,2013-10-26 10:06:00,
2013-10-26 06:11:00,54.5,53.6,30.17,West,270,0.0,0.0,97,0.00,,,0.00,meteohub,2013-10-26 10:11:00,
2013-10-26 06:16:00,54.7,53.8,30.17,West,270,0.0,0.0,97,0.00,,,0.00,meteohub,2013-10-26 10:16:00,
2013-10-26 06:21:00,54.5,53.6,30.17,West,270,0.0,0.0,97,0.00,,,0.00,meteohub,2013-10-26 10:21:00,
2013-10-26 06:26:00,54.5,53.6,30.17,West,270,0.0,0.0,97,0.00,,,0.00,meteohub,2013-10-26 10:26:00,
2013-10-26 06:31:00,54.3,53.4,30.18,West,270,0.0,0.0,97,0.00,,,0.00,meteohub,2013-10-26 10:31:00,
2013-10-26 06:36:00,54.3,53.4,30.18,West,270,0.0,0.0,97,0.00,,,0.00,meteohub,2013-10-26 10:36:00,
2013-10-26 06:41:00,54.1,53.2,30.18,West,270,0.0,0.0,97,0.00,,,0.00,meteohub,2013-10-26 10:41:00,
2013-10-26 06:46:00,54.1,53.2,30.18,West,270,0.0,0.0,97,0.00,,,0.00,meteohub,2013-10-26 10:46:00,
2013-10-26 06:52:00,54.0,53.1,30.19,West,270,0.0,0.0,97,0.00,,,0.00,meteohub,2013-10-26 10:52:00,
2013-10-26 06:57:00,54.0,53.1,30.19,West,270,0.0,0.0,97,0.00,,,0.00,meteohub,2013-10-26 10:57:00,
2013-10-26 07:02:00,54.0,53.1,30.19,West,270,0.0,0.0,97,0.00,,,0.00,meteohub,2013-10-26 11:02:00,
2013-10-26 07:07:00,54.0,53.1,30.19,West,270,0.0,0.0,97,0.00,,,0.00,meteohub,2013-10-26 11:07:00,
2013-10-26 07:12:00,53.8,52.9,30.19,West,270,0.0,0.0,97,0.00,,,0.00,meteohub,2013-10-26 11:12:00,
2013-10-26 07:17:00,53.8,52.9,30.19,West,270,0.0,0.0,97,0.00,,,0.00,meteohub,2013-10-26 11:17:00,
2013-10-26 07:22:00,53.6,52.7,30.18,West,270,0.0,0.0,97,0.00,,,0.00,meteohub,2013-10-26 11:22:00,
2013-10-26 07:27:00,53.6,52.7,30.19,West,270,0.0,0.0,97,0.00,,,0.00,meteohub,2013-10-26 11:27:00,
2013-10-26 07:32:00,53.6,52.7,30.19,West,270,0.0,0.0,97,0.00,,,0.00,meteohub,2013-10-26 11:32:00,
2013-10-26 07:37:00,53.6,52.7,30.20,West,270,0.0,0.0,97,0.00,,,0.00,meteohub,2013-10-26 11:37:00,
2013-10-26 07:42:00,53.6,52.7,30.20,NW,315,0.0,0.0,97,0.00,,,0.00,meteohub,2013-10-26 11:42:00,
2013-10-26 07:47:00,53.6,52.7,30.20,NW,315,0.0,0.0,97,0.00,,,0.00,meteohub,2013-10-26 11:47:00,
2013-10-26 07:52:00,53.6,52.7,30.20,NW,315,0.0,0.0,97,0.00,,,0.00,meteohub,2013-10-26 11:52:00,
2013-10-26 07:57:00,53.6,52.7,30.20,NW,315,0.0,0.0,97,0.00,,,0.00,meteohub,2013-10-26 11:57:00,
2013-10-26 08:02:00,53.8,52.9,30.20,NW,315,0.0,0.0,97,0.00,,,0.00,meteohub,2013-10-26 12:02:00,
2013-10-26 08:07:00,53.8,52.9,30.20,NW,315,0.0,0.0,97,0.00,,,0.00,meteohub,2013-10-26 12:07:00,
2013-10-26 08:12:00,54.0,53.1,30.20,NW,315,0.0,0.0,97,0.00,,,0.00,meteohub,2013-10-26 12:12:00,
2013-10-26 08:17:00,54.1,53.2,30.21,NW,315,0.0,0.0,97,0.00,,,0.00,meteohub,2013-10-26 12:17:00,
2013-10-26 08:22:00,54.1,53.2,30.20,NW,315,0.0,0.0,97,0.00,,,0.00,meteohub,2013-10-26 12:22:00,
2013-10-26 08:27:00,54.5,53.6,30.20,NW,315,0.0,0.0,97,0.00,,,0.00,meteohub,2013-10-26 12:27:00,
2013-10-26 08:32:00,54.9,54.0,30.21,NW,315,0.0,0.0,97,0.00,,,0.00,meteohub,2013-10-26 12:32:00,
2013-10-26 08:37:00,55.2,54.3,30.21,NW,315,0.0,0.0,97,0.00,,,0.00,meteohub,2013-10-26 12:37:00,
2013-10-26 08:42:00,55.8,54.9,30.20,North,0,0.0,1.0,97,0.00,,,0.00,meteohub,2013-10-26 12:42:00,
2013-10-26 08:47:00,56.3,55.4,30.21,North,0,0.0,1.0,97,0.00,,,0.00,meteohub,2013-10-26 12:47:00,
2013-10-26 08:52:00,56.8,55.9,30.21,North,0,0.0,2.0,97,0.00,,,0.00,meteohub,2013-10-26 12:52:00,
2013-10-26 08:57:00,57.4,56.3,30.21,North,0,1.0,2.0,96,0.00,,,0.00,meteohub,2013-10-26 12:57:00,
2013-10-26 09:02:00,58.1,56.7,30.21,North,0,0.0,2.0,95,0.00,,,0.00,meteohub,2013-10-26 13:02:00,
2013-10-26 09:07:00,58.8,57.0,30.21,North,0,1.0,2.0,94,0.00,,,0.00,meteohub,2013-10-26 13:07:00,
2013-10-26 09:12:00,59.2,56.5,30.21,North,0,0.0,2.0,91,0.00,,,0.00,meteohub,2013-10-26 13:12:00,
2013-10-26 09:17:00,59.5,56.7,30.22,North,0,2.0,2.0,90,0.00,,,0.00,meteohub,2013-10-26 13:17:00,
2013-10-26 09:22:00,59.9,56.7,30.22,North,0,0.0,2.0,89,0.00,,,0.00,meteohub,2013-10-26 13:22:00,
2013-10-26 09:27:00,60.3,56.7,30.22,East,90,0.0,2.0,88,0.00,,,0.00,meteohub,2013-10-26 13:27:00,
2013-10-26 09:32:00,60.4,56.5,30.22,North,0,0.0,2.0,87,0.00,,,0.00,meteohub,2013-10-26 13:32:00,
2013-10-26 09:37:00,60.8,56.3,30.22,WSW,248,2.0,2.0,85,0.00,,,0.00,meteohub,2013-10-26 13:37:00,
2013-10-26 09:42:00,61.3,56.1,30.22,North,0,2.0,2.0,83,0.00,,,0.00,meteohub,2013-10-26 13:42:00,
2013-10-26 09:47:00,62.1,56.8,30.22,NE,45,2.0,2.0,83,0.00,,,0.00,meteohub,2013-10-26 13:47:00,
2013-10-26 09:53:00,63.1,57.2,30.22,North,0,0.0,3.0,81,0.00,,,0.00,meteohub,2013-10-26 13:53:00,
2013-10-26 09:58:00,64.4,57.0,30.22,North,0,2.0,3.0,77,0.00,,,0.00,meteohub,2013-10-26 13:58:00,
2013-10-26 10:03:00,65.3,57.6,30.22,East,90,2.0,2.0,76,0.00,,,0.00,meteohub,2013-10-26 14:03:00,
2013-10-26 10:08:00,66.0,57.9,30.22,NW,315,2.0,3.0,75,0.00,,,0.00,meteohub,2013-10-26 14:08:00,
2013-10-26 10:13:00,66.9,58.3,30.22,NNE,23,3.0,3.0,74,0.00,,,0.00,meteohub,2013-10-26 14:13:00,
2013-10-26 10:18:00,67.8,58.8,30.22,North,0,2.0,4.0,73,0.00,,,0.00,meteohub,2013-10-26 14:18:00,
2013-10-26 10:23:00,68.5,57.9,30.23,NE,45,3.0,4.0,69,0.00,,,0.00,meteohub,2013-10-26 14:23:00,
2013-10-26 10:28:00,68.7,57.7,30.22,NE,45,1.0,4.0,68,0.00,,,0.00,meteohub,2013-10-26 14:28:00,
2013-10-26 10:33:00,69.3,58.3,30.22,NNE,23,2.0,3.0,68,0.00,,,0.00,meteohub,2013-10-26 14:33:00,
2013-10-26 10:38:00,69.8,58.3,30.22,SW,225,0.0,3.0,67,0.00,,,0.00,meteohub,2013-10-26 14:38:00,
2013-10-26 10:43:00,70.5,58.6,30.22,North,0,2.0,3.0,66,0.00,,,0.00,meteohub,2013-10-26 14:43:00,
2013-10-26 10:48:00,71.4,58.6,30.22,North,0,2.0,3.0,64,0.00,,,0.00,meteohub,2013-10-26 14:48:00,
2013-10-26 10:53:00,72.0,58.3,30.22,East,90,1.0,4.0,62,0.00,,,0.00,meteohub,2013-10-26 14:53:00,
2013-10-26 10:58:00,72.7,58.8,30.22,North,0,2.0,4.0,62,0.00,,,0.00,meteohub,2013-10-26 14:58:00,
2013-10-26 11:03:00,73.0,58.8,30.22,West,270,2.0,4.0,61,0.00,,,0.00,meteohub,2013-10-26 15:03:00,
2013-10-26 11:08:00,73.2,59.0,30.22,SW,225,0.0,4.0,61,0.00,,,0.00,meteohub,2013-10-26 15:08:00,
2013-10-26 11:14:00,74.1,58.5,30.22,East,90,2.0,3.0,58,0.00,,,0.00,meteohub,2013-10-26 15:14:00,
2013-10-26 11:19:00,74.7,59.4,30.22,NW,315,2.0,3.0,59,0.00,,,0.00,meteohub,2013-10-26 15:19:00,
2013-10-26 11:24:00,75.4,58.6,30.22,North,0,2.0,3.0,56,0.00,,,0.00,meteohub,2013-10-26 15:24:00,
2013-10-26 11:29:00,75.7,59.0,30.22,North,0,2.0,3.0,56,0.00,,,0.00,meteohub,2013-10-26 15:29:00,
2013-10-26 11:34:00,76.1,58.8,30.21,North,0,2.0,3.0,55,0.00,,,0.00,meteohub,2013-10-26 15:34:00,
2013-10-26 11:39:00,76.1,58.8,30.22,NE,45,2.0,3.0,55,0.00,,,0.00,meteohub,2013-10-26 15:39:00,
2013-10-26 11:44:00,76.5,58.6,30.21,NW,315,1.0,4.0,54,0.00,,,0.00,meteohub,2013-10-26 15:44:00,
2013-10-26 11:49:00,76.6,58.3,30.21,NE,45,2.0,4.0,53,0.00,,,0.00,meteohub,2013-10-26 15:49:00,
2013-10-26 11:54:00,76.8,59.0,30.21,North,0,2.0,3.0,54,0.00,,,0.00,meteohub,2013-10-26 15:54:00,
2013-10-26 11:59:00,77.0,58.1,30.21,East,90,2.0,3.0,52,0.00,,,0.00,meteohub,2013-10-26 15:59:00,
2013-10-26 12:04:00,77.0,57.6,30.21,East,90,2.0,3.0,51,0.00,,,0.00,meteohub,2013-10-26 16:04:00,
2013-10-26 12:09:00,77.0,57.6,30.20,NW,315,2.0,2.0,51,0.00,,,0.00,meteohub,2013-10-26 16:09:00,
2013-10-26 12:14:00,77.7,57.6,30.20,SW,225,1.0,2.0,50,0.00,,,0.00,meteohub,2013-10-26 16:14:00,
2013-10-26 12:19:00,77.7,55.9,30.20,South,180,2.0,2.0,47,0.00,,,0.00,meteohub,2013-10-26 16:19:00,
2013-10-26 12:24:00,77.7,56.5,30.20,NE,45,0.0,2.0,48,0.00,,,0.00,meteohub,2013-10-26 16:24:00,
2013-10-26 12:29:00,78.1,56.3,30.19,NNE,23,3.0,3.0,47,0.00,,,0.00,meteohub,2013-10-26 16:29:00,
2013-10-26 12:35:00,78.4,55.9,30.19,NE,45,3.0,3.0,46,0.00,,,0.00,meteohub,2013-10-26 16:35:00,
2013-10-26 12:40:00,78.6,56.1,30.19,NW,315,1.0,3.0,46,0.00,,,0.00,meteohub,2013-10-26 16:40:00,
2013-10-26 12:45:00,78.8,55.6,30.19,West,270,2.0,3.0,45,0.00,,,0.00,meteohub,2013-10-26 16:45:00,
2013-10-26 12:50:00,78.3,55.2,30.19,SW,225,2.0,4.0,45,0.00,,,0.00,meteohub,2013-10-26 16:50:00,
2013-10-26 12:55:00,77.9,55.4,30.18,West,270,3.0,4.0,46,0.00,,,0.00,meteohub,2013-10-26 16:55:00,
2013-10-26 13:00:00,77.2,53.6,30.18,SE,135,1.0,4.0,44,0.00,,,0.00,meteohub,2013-10-26 17:00:00,
2013-10-26 13:05:00,77.4,53.8,30.18,West,270,2.0,3.0,44,0.00,,,0.00,meteohub,2013-10-26 17:05:00,
2013-10-26 13:10:00,78.1,54.3,30.17,East,90,0.0,3.0,44,0.00,,,0.00,meteohub,2013-10-26 17:10:00,
2013-10-26 13:15:00,79.0,54.5,30.17,West,270,2.0,3.0,43,0.00,,,0.00,meteohub,2013-10-26 17:15:00,
2013-10-26 13:20:00,79.0,55.2,30.17,North,0,2.0,3.0,44,0.00,,,0.00,meteohub,2013-10-26 17:20:00,
2013-10-26 13:25:00,79.5,54.5,30.17,NE,45,3.0,3.0,42,0.00,,,0.00,meteohub,2013-10-26 17:25:00,
2013-10-26 13:30:00,80.2,54.3,30.17,NE,45,2.0,3.0,41,0.00,,,0.00,meteohub,2013-10-26 17:30:00,
2013-10-26 13:35:00,80.2,54.3,30.16,NE,45,1.0,3.0,41,0.00,,,0.00,meteohub,2013-10-26 17:35:00,
2013-10-26 13:40:00,80.6,54.7,30.16,NE,45,1.0,3.0,41,0.00,,,0.00,meteohub,2013-10-26 17:40:00,
2013-10-26 13:45:00,81.0,55.0,30.16,West,270,2.0,4.0,41,0.00,,,0.00,meteohub,2013-10-26 17:45:00,
2013-10-26 13:50:00,80.1,54.3,30.15,West,270,2.0,4.0,41,0.00,,,0.00,meteohub,2013-10-26 17:50:00,
2013-10-26 13:56:00,79.9,54.7,30.15,North,0,4.0,4.0,42,0.00,,,0.00,meteohub,2013-10-26 17:56:00,
2013-10-26 14:01:00,79.9,54.7,30.15,WSW,248,2.0,4.0,42,0.00,,,0.00,meteohub,2013-10-26 18:01:00,
2013-10-26 14:06:00,80.4,55.2,30.15,NNE,23,4.0,4.0,42,0.00,,,0.00,meteohub,2013-10-26 18:06:00,
2013-10-26 14:11:00,80.6,54.0,30.14,South,180,0.0,4.0,40,0.00,,,0.00,meteohub,2013-10-26 18:11:00,
2013-10-26 14:16:00,81.1,55.2,30.14,NE,45,3.0,4.0,41,0.00,,,0.00,meteohub,2013-10-26 18:16:00,
2013-10-26 14:21:00,81.3,53.2,30.14,East,90,2.0,4.0,38,0.00,,,0.00,meteohub,2013-10-26 18:21:00,
2013-10-26 14:26:00,81.3,54.0,30.14,SW,225,2.0,4.0,39,0.00,,,0.00,meteohub,2013-10-26 18:26:00,
2013-10-26 14:31:00,81.0,53.6,30.15,NW,315,1.0,4.0,39,0.00,,,0.00,meteohub,2013-10-26 18:31:00,
2013-10-26 14:36:00,81.0,52.9,30.14,South,180,3.0,3.0,38,0.00,,,0.00,meteohub,2013-10-26 18:36:00,
2013-10-26 14:41:00,80.1,54.3,30.14,North,0,3.0,4.0,41,0.00,,,0.00,meteohub,2013-10-26 18:41:00,
2013-10-26 14:46:00,80.8,53.6,30.14,NW,315,2.0,4.0,39,0.00,,,0.00,meteohub,2013-10-26 18:46:00,
2013-10-26 14:51:00,81.9,55.9,30.13,NE,45,2.0,4.0,41,0.00,,,0.00,meteohub,2013-10-26 18:51:00,
2013-10-26 14:56:00,82.4,55.6,30.14,East,90,4.0,4.0,40,0.00,,,0.00,meteohub,2013-10-26 18:56:00,
2013-10-26 15:01:00,81.9,54.5,30.13,East,90,2.0,4.0,39,0.00,,,0.00,meteohub,2013-10-26 19:01:00,
2013-10-26 15:07:00,80.8,54.9,30.13,SW,225,3.0,4.0,41,0.00,,,0.00,meteohub,2013-10-26 19:07:00,
2013-10-26 15:12:00,80.8,54.9,30.13,East,90,2.0,4.0,41,0.00,,,0.00,meteohub,2013-10-26 19:12:00,
2013-10-26 15:17:00,81.3,54.7,30.13,North,0,2.0,4.0,40,0.00,,,0.00,meteohub,2013-10-26 19:17:00,
2013-10-26 15:22:00,81.7,52.9,30.13,NE,45,3.0,3.0,37,0.00,,,0.00,meteohub,2013-10-26 19:22:00,
2013-10-26 15:27:00,81.5,49.6,30.12,NNE,23,1.0,4.0,33,0.00,,,0.00,meteohub,2013-10-26 19:27:00,
2013-10-26 15:32:00,81.3,51.8,30.13,East,90,2.0,4.0,36,0.00,,,0.00,meteohub,2013-10-26 19:32:00,
2013-10-26 15:37:00,80.8,52.2,30.12,North,0,0.0,4.0,37,0.00,,,0.00,meteohub,2013-10-26 19:37:00,
2013-10-26 15:42:00,80.1,53.6,30.12,North,0,2.0,3.0,40,0.00,,,0.00,meteohub,2013-10-26 19:42:00,
2013-10-26 15:47:00,79.7,53.2,30.12,West,270,2.0,4.0,40,0.00,,,0.00,meteohub,2013-10-26 19:47:00,
2013-10-26 15:52:00,79.3,53.6,30.12,NW,315,3.0,4.0,41,0.00,,,0.00,meteohub,2013-10-26 19:52:00,
2013-10-26 15:57:00,78.8,53.8,30.12,NE,45,2.0,4.0,42,0.00,,,0.00,meteohub,2013-10-26 19:57:00,
2013-10-26 16:02:00,78.6,54.3,30.12,South,180,1.0,3.0,43,0.00,,,0.00,meteohub,2013-10-26 20:02:00,
2013-10-26 16:07:00,78.6,53.6,30.11,East,90,2.0,4.0,42,0.00,,,0.00,meteohub,2013-10-26 20:07:00,
2013-10-26 16:12:00,78.6,53.6,30.11,NW,315,1.0,4.0,42,0.00,,,0.00,meteohub,2013-10-26 20:12:00,
2013-10-26 16:17:00,78.6,53.6,30.11,North,0,4.0,4.0,42,0.00,,,0.00,meteohub,2013-10-26 20:17:00,
2013-10-26 16:22:00,78.4,54.1,30.11,North,0,0.0,4.0,43,0.00,,,0.00,meteohub,2013-10-26 20:22:00,
2013-10-26 16:27:00,78.3,54.0,30.11,North,0,1.0,4.0,43,0.00,,,0.00,meteohub,2013-10-26 20:27:00,
2013-10-26 16:32:00,78.4,54.1,30.11,WSW,248,1.0,4.0,43,0.00,,,0.00,meteohub,2013-10-26 20:32:00,
2013-10-26 16:37:00,78.4,54.1,30.11,NE,45,3.0,3.0,43,0.00,,,0.00,meteohub,2013-10-26 20:37:00,
2013-10-26 16:42:00,78.6,54.3,30.11,North,0,2.0,4.0,43,0.00,,,0.00,meteohub,2013-10-26 20:42:00,
2013-10-26 16:47:00,78.4,54.1,30.11,North,0,3.0,4.0,43,0.00,,,0.00,meteohub,2013-10-26 20:47:00,
2013-10-26 16:52:00,78.4,54.1,30.10,NW,315,2.0,4.0,43,0.00,,,0.00,meteohub,2013-10-26 20:52:00,
2013-10-26 16:57:00,78.3,54.0,30.10,North,0,1.0,3.0,43,0.00,,,0.00,meteohub,2013-10-26 20:57:00,
2013-10-26 17:02:00,78.1,54.3,30.10,South,180,0.0,3.0,44,0.00,,,0.00,meteohub,2013-10-26 21:02:00,
2013-10-26 17:07:00,78.1,53.8,30.11,NW,315,1.0,3.0,43,0.00,,,0.00,meteohub,2013-10-26 21:07:00,
2013-10-26 17:12:00,78.1,53.8,30.11,North,0,1.0,3.0,43,0.00,,,0.00,meteohub,2013-10-26 21:12:00,
2013-10-26 17:17:00,78.3,54.0,30.10,NE,45,3.0,3.0,43,0.00,,,0.00,meteohub,2013-10-26 21:17:00,
2013-10-26 17:22:00,78.4,54.1,30.11,NW,315,2.0,3.0,43,0.00,,,0.00,meteohub,2013-10-26 21:22:00,
2013-10-26 17:27:00,78.6,54.3,30.11,NE,45,2.0,3.0,43,0.00,,,0.00,meteohub,2013-10-26 21:27:00,
2013-10-26 17:32:00,78.4,54.1,30.11,NE,45,2.0,3.0,43,0.00,,,0.00,meteohub,2013-10-26 21:32:00,
2013-10-26 17:37:00,78.3,54.0,30.11,NW,315,1.0,2.0,43,0.00,,,0.00,meteohub,2013-10-26 21:37:00,
2013-10-26 17:42:00,78.1,53.8,30.11,NW,315,0.0,2.0,43,0.00,,,0.00,meteohub,2013-10-26 21:42:00,
2013-10-26 17:47:00,78.1,53.8,30.11,North,0,0.0,2.0,43,0.00,,,0.00,meteohub,2013-10-26 21:47:00,
2013-10-26 17:52:00,77.7,53.4,30.11,North,0,0.0,2.0,43,0.00,,,0.00,meteohub,2013-10-26 21:52:00,
2013-10-26 17:57:00,77.0,53.4,30.11,North,0,0.0,2.0,44,0.00,,,0.00,meteohub,2013-10-26 21:57:00,
2013-10-26 18:02:00,76.3,53.4,30.11,North,0,1.0,1.0,45,0.00,,,0.00,meteohub,2013-10-26 22:02:00,
2013-10-26 18:07:00,75.4,52.5,30.11,North,0,0.0,1.0,45,0.00,,,0.00,meteohub,2013-10-26 22:07:00,
2013-10-26 18:12:00,74.8,53.2,30.11,North,0,0.0,1.0,47,0.00,,,0.00,meteohub,2013-10-26 22:12:00,
2013-10-26 18:17:00,74.3,53.4,30.11,North,0,0.0,1.0,48,0.00,,,0.00,meteohub,2013-10-26 22:17:00,
2013-10-26 18:22:00,73.6,53.2,30.10,North,0,0.0,1.0,49,0.00,,,0.00,meteohub,2013-10-26 22:22:00,
2013-10-26 18:27:00,72.9,53.6,30.10,North,0,0.0,0.0,51,0.00,,,0.00,meteohub,2013-10-26 22:27:00,
2013-10-26 18:32:00,72.3,53.8,30.10,North,0,0.0,0.0,52,0.00,,,0.00,meteohub,2013-10-26 22:32:00,
2013-10-26 18:37:00,71.8,53.8,30.10,North,0,0.0,0.0,53,0.00,,,0.00,meteohub,2013-10-26 22:37:00,
2013-10-26 18:42:00,71.1,53.6,30.11,North,0,0.0,0.0,54,0.00,,,0.00,meteohub,2013-10-26 22:42:00,
2013-10-26 18:47:00,70.3,53.4,30.11,North,0,0.0,0.0,55,0.00,,,0.00,meteohub,2013-10-26 22:47:00,
2013-10-26 18:52:00,70.0,53.6,30.11,North,0,0.0,0.0,56,0.00,,,0.00,meteohub,2013-10-26 22:52:00,
2013-10-26 18:57:00,69.6,54.1,30.11,West,270,0.0,0.0,58,0.00,,,0.00,meteohub,2013-10-26 22:57:00,
2013-10-26 19:02:00,69.3,54.3,30.11,West,270,0.0,0.0,59,0.00,,,0.00,meteohub,2013-10-26 23:02:00,
2013-10-26 19:07:00,68.7,54.7,30.12,West,270,0.0,0.0,61,0.00,,,0.00,meteohub,2013-10-26 23:07:00,
2013-10-26 19:12:00,68.4,54.9,30.12,West,270,0.0,0.0,62,0.00,,,0.00,meteohub,2013-10-26 23:12:00,
2013-10-26 19:17:00,68.0,54.9,30.12,West,270,0.0,0.0,63,0.00,,,0.00,meteohub,2013-10-26 23:17:00,
2013-10-26 19:22:00,67.5,54.9,30.12,West,270,0.0,0.0,64,0.00,,,0.00,meteohub,2013-10-26 23:22:00,
2013-10-26 19:27:00,67.1,54.9,30.12,West,270,0.0,0.0,65,0.00,,,0.00,meteohub,2013-10-26 23:27:00,
2013-10-26 19:32:00,66.6,54.5,30.12,West,270,0.0,0.0,65,0.00,,,0.00,meteohub,2013-10-26 23:32:00,
2013-10-26 19:37:00,66.4,54.7,30.12,SE,135,0.0,0.0,66,0.00,,,0.00,meteohub,2013-10-26 23:37:00,
2013-10-26 19:42:00,66.0,54.7,30.12,SE,135,0.0,0.0,67,0.00,,,0.00,meteohub,2013-10-26 23:42:00,
2013-10-26 19:47:00,65.7,54.9,30.12,SE,135,0.0,0.0,68,0.00,,,0.00,meteohub,2013-10-26 23:47:00,
2013-10-26 19:52:00,65.3,54.5,30.12,SE,135,0.0,0.0,68,0.00,,,0.00,meteohub,2013-10-26 23:52:00,
2013-10-26 19:57:00,65.1,54.7,30.12,SE,135,0.0,0.0,69,0.00,,,0.00,meteohub,2013-10-26 23:57:00,
2013-10-26 20:02:00,64.8,54.7,30.12,SE,135,0.0,0.0,70,0.00,,,0.00,meteohub,2013-10-27 00:02:00,
2013-10-26 20:07:00,64.6,55.0,30.12,SE,135,0.0,0.0,71,0.00,,,0.00,meteohub,2013-10-27 00:07:00,
2013-10-26 20:12:00,64.4,55.2,30.12,SE,135,0.0,0.0,72,0.00,,,0.00,meteohub,2013-10-27 00:12:00,
2013-10-26 20:17:00,64.2,55.0,30.12,SE,135,0.0,0.0,72,0.00,,,0.00,meteohub,2013-10-27 00:17:00,
2013-10-26 20:22:00,64.0,55.2,30.12,SE,135,0.0,0.0,73,0.00,,,0.00,meteohub,2013-10-27 00:22:00,
2013-10-26 20:27:00,63.7,54.9,30.13,SE,135,0.0,0.0,73,0.00,,,0.00,meteohub,2013-10-27 00:27:00,
2013-10-26 20:32:00,63.3,54.9,30.13,SE,135,0.0,0.0,74,0.00,,,0.00,meteohub,2013-10-27 00:32:00,
2013-10-26 20:38:00,63.1,55.0,30.13,NE,45,0.0,0.0,75,0.00,,,0.00,meteohub,2013-10-27 00:38:00,
2013-10-26 20:43:00,63.0,55.2,30.13,NE,45,0.0,0.0,76,0.00,,,0.00,meteohub,2013-10-27 00:43:00,
2013-10-26 20:48:00,62.8,55.0,30.14,NE,45,0.0,0.0,76,0.00,,,0.00,meteohub,2013-10-27 00:48:00,
2013-10-26 20:53:00,62.8,55.4,30.14,NE,45,0.0,0.0,77,0.00,,,0.00,meteohub,2013-10-27 00:53:00,
2013-10-26 20:58:00,62.6,55.6,30.14,NE,45,0.0,0.0,78,0.00,,,0.00,meteohub,2013-10-27 00:58:00,
2013-10-26 21:03:00,62.4,56.1,30.14,NE,45,0.0,0.0,80,0.00,,,0.00,meteohub,2013-10-27 01:03:00,
2013-10-26 21:08:00,62.2,56.3,30.14,NE,45,0.0,0.0,81,0.00,,,0.00,meteohub,2013-10-27 01:08:00,
2013-10-26 21:13:00,62.1,56.1,30.14,NE,45,0.0,0.0,81,0.00,,,0.00,meteohub,2013-10-27 01:13:00,
2013-10-26 21:19:00,61.9,56.3,30.14,NE,45,0.0,0.0,82,0.00,,,0.00,meteohub,2013-10-27 01:19:00,
2013-10-26 21:24:00,61.7,56.1,30.14,NE,45,0.0,0.0,82,0.00,,,0.00,meteohub,2013-10-27 01:24:00,
2013-10-26 21:29:00,61.5,55.9,30.15,NE,45,0.0,0.0,82,0.00,,,0.00,meteohub,2013-10-27 01:29:00,
2013-10-26 21:34:00,61.2,55.6,30.15,NE,45,0.0,0.0,82,0.00,,,0.00,meteohub,2013-10-27 01:34:00,
2013-10-26 21:39:00,61.0,55.4,30.15,NE,45,0.0,0.0,82,0.00,,,0.00,meteohub,2013-10-27 01:39:00,
2013-10-26 21:44:00,60.8,55.6,30.15,NE,45,0.0,0.0,83,0.00,,,0.00,meteohub,2013-10-27 01:44:00,
2013-10-26 21:49:00,60.6,55.8,30.15,NE,45,0.0,0.0,84,0.00,,,0.00,meteohub,2013-10-27 01:49:00,
2013-10-26 21:54:00,60.4,55.6,30.15,NE,45,0.0,0.0,84,0.00,,,0.00,meteohub,2013-10-27 01:54:00,
2013-10-26 21:59:00,60.3,55.8,30.15,NE,45,0.0,0.0,85,0.00,,,0.00,meteohub,2013-10-27 01:59:00,
2013-10-26 22:04:00,60.1,55.6,30.15,NE,45,0.0,0.0,85,0.00,,,0.00,meteohub,2013-10-27 02:04:00,
2013-10-26 22:09:00,60.1,55.9,30.15,NE,45,0.0,0.0,86,0.00,,,0.00,meteohub,2013-10-27 02:09:00,
2013-10-26 22:14:00,60.1,55.9,30.15,NE,45,0.0,0.0,86,0.00,,,0.00,meteohub,2013-10-27 02:14:00,
2013-10-26 22:20:00,59.9,55.8,30.16,NE,45,0.0,0.0,86,0.00,,,0.00,meteohub,2013-10-27 02:20:00,
2013-10-26 22:25:00,59.9,55.8,30.16,NE,45,0.0,0.0,86,0.00,,,0.00,meteohub,2013-10-27 02:25:00,
2013-10-26 22:30:00,59.7,55.8,30.16,NE,45,0.0,0.0,87,0.00,,,0.00,meteohub,2013-10-27 02:30:00,
2013-10-26 22:35:00,59.7,55.8,30.16,NE,45,0.0,0.0,87,0.00,,,0.00,meteohub,2013-10-27 02:35:00,
2013-10-26 22:40:00,59.7,55.8,30.17,NE,45,0.0,0.0,87,0.00,,,0.00,meteohub,2013-10-27 02:40:00,
2013-10-26 22:45:00,59.5,55.6,30.16,NE,45,0.0,0.0,87,0.00,,,0.00,meteohub,2013-10-27 02:45:00,
2013-10-26 22:50:00,59.5,55.6,30.16,NE,45,0.0,0.0,87,0.00,,,0.00,meteohub,2013-10-27 02:50:00,
2013-10-26 22:55:00,59.5,55.9,30.16,NE,45,0.0,0.0,88,0.00,,,0.00,meteohub,2013-10-27 02:55:00,
2013-10-26 23:00:00,59.5,55.9,30.15,NE,45,0.0,0.0,88,0.00,,,0.00,meteohub,2013-10-27 03:00:00,
2013-10-26 23:06:00,59.2,55.6,30.16,NE,45,0.0,0.0,88,0.00,,,0.00,meteohub,2013-10-27 03:06:00,
2013-10-26 23:11:00,59.0,55.4,30.16,NE,45,0.0,0.0,88,0.00,,,0.00,meteohub,2013-10-27 03:11:00,
2013-10-26 23:16:00,58.8,55.6,30.15,NE,45,0.0,0.0,89,0.00,,,0.00,meteohub,2013-10-27 03:16:00,
2013-10-26 23:21:00,58.8,55.9,30.15,NE,45,0.0,0.0,90,0.00,,,0.00,meteohub,2013-10-27 03:21:00,
2013-10-26 23:26:00,58.8,55.9,30.15,NE,45,0.0,0.0,90,0.00,,,0.00,meteohub,2013-10-27 03:26:00,
2013-10-26 23:31:00,58.8,55.9,30.15,NE,45,0.0,0.0,90,0.00,,,0.00,meteohub,2013-10-27 03:31:00,
2013-10-26 23:37:00,58.6,55.8,30.14,NE,45,0.0,0.0,90,0.00,,,0.00,meteohub,2013-10-27 03:37:00,
2013-10-26 23:42:00,58.5,55.6,30.14,NE,45,0.0,0.0,90,0.00,,,0.00,meteohub,2013-10-27 03:42:00,
2013-10-26 23:47:00,58.3,55.4,30.14,NE,45,0.0,0.0,90,0.00,,,0.00,meteohub,2013-10-27 03:47:00,
2013-10-26 23:52:00,58.3,55.4,30.14,NW,315,0.0,0.0,90,0.00,,,0.00,meteohub,2013-10-27 03:52:00,
2013-10-26 23:57:00,58.1,55.4,30.14,NW,315,0.0,0.0,91,0.00,,,0.00,meteohub,2013-10-27 03:57:00,